Time,TemperatureF,DewpointF,PressureIn,WindDirection,WindDirectionDegrees,WindSpeedMPH,WindSpeedGustMPH,Humidity,HourlyPrecipIn,Conditions,Clouds,dailyrainin,SoftwareType,DateUTC
2013-04-24 00:00:00,72.8,82.3,30.08,NNE,22,7.4,11.4,61,0.00,,,0.00,,2013-04-24 04:00:00,
2013-04-24 00:01:00,72.7,82.2,30.09,NNE,22,8.5,12.1,60,0.00,,,0.00,,2013-04-24 04:01:00,
2013-04-24 00:06:00,72.8,82.1,30.08,NNE,22,5.1,5.1,61,0.00,,,0.00,,2013-04-24 04:06:00,
2013-04-24 00:11:00,72.7,82.2,30.08,NE,45,5.6,7.8,60,0.00,,,0.00,,2013-04-24 04:11:00,
2013-04-24 00:16:00,72.7,82.2,30.08,NE,45,4.5,4.5,61,0.00,,,0.00,,2013-04-24 04:16:00,
2013-04-24 00:21:00,72.7,82.2,30.09,NE,45,6.3,6.3,61,0.00,,,0.00,,2013-04-24 04:21:00,
2013-04-24 00:26:00,72.7,82.3,30.08,ENE,67,6.7,7.4,61,0.00,,,0.00,,2013-04-24 04:26:00,
2013-04-24 00:31:00,72.6,82.3,30.08,ENE,67,3.4,5.1,61,0.00,,,0.00,,2013-04-24 04:31:00,
2013-04-24 00:36:00,72.6,82.1,30.08,NNE,22,4.3,8.3,62,0.00,,,0.00,,2013-04-24 04:36:00,
2013-04-24 00:41:00,72.6,82.1,30.08,East,90,6.0,14.3,61,0.00,,,0.00,,2013-04-24 04:41:00,
2013-04-24 00:46:00,72.6,82.0,30.08,East,90,8.7,13.9,61,0.00,,,0.00,,2013-04-24 04:46:00,
2013-04-24 00:51:00,72.6,82.1,30.08,NE,45,6.7,11.4,61,0.00,,,0.00,,2013-04-24 04:51:00,
2013-04-24 00:56:00,72.6,82.1,30.08,East,90,10.3,10.5,61,0.00,,,0.00,,2013-04-24 04:56:00,
2013-04-24 01:01:00,72.6,82.1,30.08,NE,45,3.8,5.1,61,0.00,,,0.00,,2013-04-24 05:01:00,
2013-04-24 01:06:00,72.5,82.1,30.08,ENE,67,4.5,6.5,60,0.00,,,0.00,,2013-04-24 05:06:00,
2013-04-24 01:11:00,72.3,82.1,30.08,ENE,67,5.8,6.3,60,0.00,,,0.00,,2013-04-24 05:11:00,
2013-04-24 01:16:00,72.3,82.1,30.07,ENE,67,3.8,8.3,61,0.00,,,0.00,,2013-04-24 05:16:00,
2013-04-24 01:21:00,72.3,82.1,30.07,ENE,67,4.3,6.0,61,0.00,,,0.00,,2013-04-24 05:21:00,
2013-04-24 01:26:00,72.2,82.3,30.07,ENE,67,5.4,10.7,61,0.00,,,0.00,,2013-04-24 05:26:00,
2013-04-24 01:31:00,72.2,82.1,30.07,NNE,22,8.9,9.2,61,0.00,,,0.00,,2013-04-24 05:31:00,
2013-04-24 01:36:00,72.2,82.0,30.06,ENE,67,8.5,8.5,62,0.00,,,0.00,,2013-04-24 05:36:00,
2013-04-24 01:41:00,72.1,82.1,30.06,East,90,5.4,6.5,62,0.00,,,0.00,,2013-04-24 05:41:00,
2013-04-24 01:47:00,72.1,82.1,30.06,NE,45,4.9,6.0,62,0.00,,,0.00,,2013-04-24 05:47:00,
2013-04-24 01:52:00,72.1,82.1,30.06,ENE,67,0.2,2.7,62,0.00,,,0.00,,2013-04-24 05:52:00,
2013-04-24 01:57:00,72.0,82.0,30.06,NE,45,5.1,5.8,62,0.00,,,0.00,,2013-04-24 05:57:00,
2013-04-24 02:02:00,72.0,82.0,30.06,ENE,67,4.0,5.4,62,0.00,,,0.00,,2013-04-24 06:02:00,
2013-04-24 02:07:00,71.9,82.0,30.06,NE,45,4.3,6.9,62,0.00,,,0.00,,2013-04-24 06:07:00,
2013-04-24 02:12:00,71.8,82.0,30.05,ENE,67,4.3,4.3,62,0.00,,,0.00,,2013-04-24 06:12:00,
2013-04-24 02:17:00,71.7,82.0,30.05,East,90,3.1,5.8,63,0.00,,,0.00,,2013-04-24 06:17:00,
2013-04-24 02:22:00,71.7,82.0,30.05,ENE,67,4.7,4.7,63,0.00,,,0.00,,2013-04-24 06:22:00,
2013-04-24 02:27:00,71.6,82.1,30.04,ENE,67,6.0,6.7,63,0.00,,,0.00,,2013-04-24 06:27:00,
2013-04-24 02:32:00,71.6,82.1,30.04,ENE,67,5.1,5.1,63,0.00,,,0.00,,2013-04-24 06:32:00,
2013-04-24 02:37:00,71.6,82.0,30.04,ENE,67,2.5,3.4,64,0.00,,,0.00,,2013-04-24 06:37:00,
2013-04-24 02:42:00,71.6,82.0,30.04,NE,45,0.4,0.4,65,0.00,,,0.00,,2013-04-24 06:42:00,
2013-04-24 02:47:00,71.6,81.9,30.04,East,90,7.2,11.6,65,0.00,,,0.00,,2013-04-24 06:47:00,
2013-04-24 02:52:00,71.7,82.0,30.04,East,90,8.3,14.1,65,0.00,,,0.00,,2013-04-24 06:52:00,
2013-04-24 02:57:00,71.7,82.0,30.04,East,90,15.2,16.1,64,0.00,,,0.00,,2013-04-24 06:57:00,
2013-04-24 03:02:00,71.8,81.9,30.03,East,90,13.0,15.4,63,0.00,,,0.00,,2013-04-24 07:02:00,
2013-04-24 03:07:00,71.8,82.0,30.03,East,90,4.3,9.2,63,0.00,,,0.00,,2013-04-24 07:07:00,
2013-04-24 03:12:00,71.8,81.9,30.03,East,90,2.7,11.2,63,0.00,,,0.00,,2013-04-24 07:12:00,
2013-04-24 03:17:00,71.8,82.0,30.03,East,90,8.1,9.4,63,0.00,,,0.00,,2013-04-24 07:17:00,
2013-04-24 03:22:00,71.8,81.8,30.03,East,90,5.1,7.8,64,0.00,,,0.00,,2013-04-24 07:22:00,
2013-04-24 03:27:00,71.7,82.0,30.03,East,90,4.5,10.7,64,0.00,,,0.00,,2013-04-24 07:27:00,
2013-04-24 03:32:00,71.7,81.9,30.03,East,90,4.5,7.8,65,0.00,,,0.00,,2013-04-24 07:32:00,
2013-04-24 03:37:00,71.5,82.0,30.03,ENE,67,6.5,6.7,64,0.00,,,0.00,,2013-04-24 07:37:00,
2013-04-24 03:42:00,71.5,81.9,30.03,ENE,67,4.5,8.3,64,0.00,,,0.00,,2013-04-24 07:42:00,
2013-04-24 03:47:00,71.4,81.8,30.03,ENE,67,5.4,8.7,64,0.00,,,0.00,,2013-04-24 07:47:00,
2013-04-24 03:52:00,71.4,81.8,30.03,ENE,67,3.1,5.6,64,0.00,,,0.00,,2013-04-24 07:52:00,
2013-04-24 03:57:00,71.4,81.8,30.03,NE,45,2.2,3.8,65,0.00,,,0.00,,2013-04-24 07:57:00,
2013-04-24 04:02:00,71.3,81.8,30.03,NE,45,4.0,7.8,64,0.00,,,0.00,,2013-04-24 08:02:00,
2013-04-24 04:07:00,71.2,81.8,30.03,East,90,5.6,5.6,64,0.00,,,0.00,,2013-04-24 08:07:00,
2013-04-24 04:12:00,71.2,81.8,30.03,ENE,67,3.8,5.8,64,0.00,,,0.00,,2013-04-24 08:12:00,
2013-04-24 04:17:00,71.2,81.8,30.03,ENE,67,0.9,2.7,64,0.00,,,0.00,,2013-04-24 08:17:00,
2013-04-24 04:22:00,71.2,81.9,30.03,ENE,67,0.0,1.6,65,0.00,,,0.00,,2013-04-24 08:22:00,
2013-04-24 04:27:00,71.2,81.9,30.04,East,90,0.0,0.0,65,0.00,,,0.00,,2013-04-24 08:27:00,
2013-04-24 04:32:00,71.1,81.9,30.04,East,90,0.0,0.0,65,0.00,,,0.00,,2013-04-24 08:32:00,
2013-04-24 04:37:00,71.0,81.8,30.04,East,90,0.9,0.9,65,0.00,,,0.00,,2013-04-24 08:37:00,
2013-04-24 04:42:00,71.0,81.9,30.04,ENE,67,0.0,0.0,65,0.00,,,0.00,,2013-04-24 08:42:00,
2013-04-24 04:47:00,70.9,81.9,30.04,ENE,67,0.0,0.0,66,0.00,,,0.00,,2013-04-24 08:47:00,
2013-04-24 04:52:00,71.0,81.8,30.04,ENE,67,0.0,0.0,66,0.00,,,0.00,,2013-04-24 08:52:00,
2013-04-24 04:57:00,70.9,81.9,30.04,NE,45,0.0,0.0,66,0.00,,,0.00,,2013-04-24 08:57:00,
2013-04-24 05:02:00,70.9,81.8,30.04,NNE,22,0.0,0.0,66,0.00,,,0.00,,2013-04-24 09:02:00,
2013-04-24 05:07:00,70.9,81.8,30.04,NE,45,0.0,0.0,67,0.00,,,0.00,,2013-04-24 09:07:00,
2013-04-24 05:12:00,70.9,81.8,30.04,NE,45,0.0,0.0,67,0.00,,,0.00,,2013-04-24 09:12:00,
2013-04-24 05:17:00,70.8,81.8,30.04,NE,45,0.0,0.0,67,0.00,,,0.00,,2013-04-24 09:17:00,
2013-04-24 05:22:00,70.8,81.8,30.04,NE,45,0.0,0.0,68,0.00,,,0.00,,2013-04-24 09:22:00,
2013-04-24 05:27:00,70.7,81.8,30.04,NE,45,0.0,0.0,68,0.00,,,0.00,,2013-04-24 09:27:00,
2013-04-24 05:32:00,70.7,81.8,30.04,NE,45,0.0,0.0,69,0.00,,,0.00,,2013-04-24 09:32:00,
2013-04-24 05:37:00,70.5,81.8,30.05,NE,45,0.0,0.0,69,0.00,,,0.00,,2013-04-24 09:37:00,
2013-04-24 05:42:00,70.4,81.7,30.05,North,0,0.0,0.0,71,0.00,,,0.00,,2013-04-24 09:42:00,
2013-04-24 05:47:00,70.3,81.8,30.05,NNW,337,1.8,2.2,71,0.00,,,0.00,,2013-04-24 09:47:00,
2013-04-24 05:52:00,70.0,81.8,30.05,NNW,337,0.0,0.7,70,0.00,,,0.00,,2013-04-24 09:52:00,
2013-04-24 05:57:00,69.9,81.8,30.06,NNW,337,0.0,0.0,71,0.00,,,0.00,,2013-04-24 09:57:00,
2013-04-24 06:02:00,69.8,81.9,30.06,NNW,337,0.0,0.0,71,0.00,,,0.00,,2013-04-24 10:02:00,
2013-04-24 06:07:00,69.7,81.8,30.06,North,0,0.0,2.5,71,0.00,,,0.00,,2013-04-24 10:07:00,
2013-04-24 06:12:00,69.6,81.8,30.06,NNW,337,1.8,2.5,72,0.00,,,0.00,,2013-04-24 10:12:00,
2013-04-24 06:17:00,69.5,81.8,30.06,North,0,2.9,3.4,72,0.00,,,0.00,,2013-04-24 10:17:00,
2013-04-24 06:22:00,69.4,81.8,30.06,North,0,1.3,2.5,72,0.00,,,0.00,,2013-04-24 10:22:00,
2013-04-24 06:27:00,69.2,81.8,30.06,NNW,337,2.9,2.9,73,0.00,,,0.00,,2013-04-24 10:27:00,
2013-04-24 06:32:00,69.2,81.7,30.06,NNW,337,2.0,2.2,73,0.00,,,0.00,,2013-04-24 10:32:00,
2013-04-24 06:37:00,69.0,81.7,30.06,North,0,1.6,3.6,73,0.00,,,0.00,,2013-04-24 10:37:00,
2013-04-24 06:42:00,69.0,81.7,30.07,NNW,337,3.1,3.4,74,0.00,,,0.00,,2013-04-24 10:42:00,
2013-04-24 06:47:00,68.9,81.8,30.07,NNW,337,1.8,2.2,74,0.00,,,0.00,,2013-04-24 10:47:00,
2013-04-24 06:52:00,68.9,81.7,30.07,North,0,0.0,0.0,74,0.00,,,0.00,,2013-04-24 10:52:00,
2013-04-24 06:57:00,69.0,81.7,30.07,NNE,22,0.0,0.4,75,0.00,,,0.00,,2013-04-24 10:57:00,
2013-04-24 07:02:00,69.0,81.6,30.07,NNW,337,1.1,2.5,75,0.00,,,0.00,,2013-04-24 11:02:00,
2013-04-24 07:08:00,69.2,81.7,30.07,North,0,3.4,3.6,76,0.00,,,0.00,,2013-04-24 11:08:00,
2013-04-24 07:13:00,69.4,81.8,30.07,NNW,337,1.6,2.9,75,0.00,,,0.00,,2013-04-24 11:13:00,
2013-04-24 07:18:00,69.6,81.7,30.08,NNE,22,0.0,1.6,75,0.00,,,0.00,,2013-04-24 11:18:00,
2013-04-24 07:23:00,69.7,81.7,30.08,North,0,2.0,3.4,75,0.00,,,0.00,,2013-04-24 11:23:00,
2013-04-24 07:28:00,69.8,81.7,30.08,NNW,337,2.9,3.4,75,0.00,,,0.00,,2013-04-24 11:28:00,
2013-04-24 07:33:00,70.1,81.8,30.09,NNW,337,0.0,2.2,75,0.00,,,0.00,,2013-04-24 11:33:00,
2013-04-24 07:38:00,70.3,81.8,30.09,NNW,337,1.1,2.5,75,0.00,,,0.00,,2013-04-24 11:38:00,
2013-04-24 07:43:00,70.6,81.5,30.09,NNW,337,1.3,2.7,75,0.00,,,0.00,,2013-04-24 11:43:00,
2013-04-24 07:48:00,70.9,81.8,30.09,NNW,337,0.0,0.0,75,0.00,,,0.00,,2013-04-24 11:48:00,
2013-04-24 07:53:00,72.3,81.0,30.09,North,0,0.0,3.1,75,0.00,,,0.00,,2013-04-24 11:53:00,
2013-04-24 07:58:00,72.6,81.1,30.09,NNE,22,2.5,3.1,73,0.00,,,0.00,,2013-04-24 11:58:00,
2013-04-24 08:03:00,72.4,81.1,30.09,NNE,22,1.1,2.0,73,0.00,,,0.00,,2013-04-24 12:03:00,
2013-04-24 08:08:00,73.2,81.0,30.09,North,0,0.2,1.1,74,0.00,,,0.00,,2013-04-24 12:08:00,
2013-04-24 08:13:00,74.1,81.9,30.09,NNE,22,2.7,2.9,72,0.00,,,0.00,,2013-04-24 12:13:00,
2013-04-24 08:18:00,74.8,82.0,30.09,NNE,22,1.8,2.7,71,0.00,,,0.00,,2013-04-24 12:18:00,
2013-04-24 08:23:00,75.6,81.2,30.09,NNE,22,0.0,0.0,70,0.00,,,0.00,,2013-04-24 12:23:00,
2013-04-24 08:28:00,76.3,81.2,30.09,NE,45,0.0,0.0,68,0.00,,,0.00,,2013-04-24 12:28:00,
2013-04-24 08:33:00,77.0,81.1,30.09,ENE,67,4.3,4.7,66,0.00,,,0.00,,2013-04-24 12:33:00,
2013-04-24 08:38:00,77.4,81.3,30.09,East,90,4.9,4.9,63,0.00,,,0.00,,2013-04-24 12:38:00,
2013-04-24 08:43:00,77.7,81.9,30.10,East,90,8.3,9.6,58,0.00,,,0.00,,2013-04-24 12:43:00,
2013-04-24 08:48:00,77.6,81.9,30.10,East,90,11.2,11.2,57,0.00,,,0.00,,2013-04-24 12:48:00,
2013-04-24 08:53:00,77.5,82.1,30.10,ENE,67,3.1,6.0,58,0.00,,,0.00,,2013-04-24 12:53:00,
2013-04-24 08:58:00,77.6,81.3,30.10,East,90,12.5,13.2,56,0.00,,,0.00,,2013-04-24 12:58:00,
2013-04-24 09:03:00,77.5,81.4,30.11,East,90,6.3,12.8,56,0.00,,,0.00,,2013-04-24 13:03:00,
2013-04-24 09:08:00,77.3,81.8,30.11,ENE,67,15.0,16.1,56,0.00,,,0.00,,2013-04-24 13:08:00,
2013-04-24 09:13:00,77.1,82.0,30.10,ENE,67,7.2,11.4,57,0.00,,,0.00,,2013-04-24 13:13:00,
2013-04-24 09:18:00,76.9,81.8,30.10,East,90,7.8,15.2,57,0.00,,,0.00,,2013-04-24 13:18:00,
2013-04-24 09:23:00,76.8,81.1,30.10,ENE,67,15.2,17.0,57,0.00,,,0.00,,2013-04-24 13:23:00,
2013-04-24 09:28:00,76.9,81.4,30.10,ESE,112,9.2,12.5,57,0.00,,,0.00,,2013-04-24 13:28:00,
2013-04-24 09:33:00,77.1,81.7,30.11,ENE,67,11.4,11.4,56,0.00,,,0.00,,2013-04-24 13:33:00,
2013-04-24 09:38:00,77.3,81.5,30.11,ESE,112,4.9,14.3,56,0.00,,,0.00,,2013-04-24 13:38:00,
2013-04-24 09:43:00,77.7,81.4,30.11,ENE,67,13.4,13.4,55,0.00,,,0.00,,2013-04-24 13:43:00,
2013-04-24 09:48:00,77.5,81.8,30.11,East,90,9.2,15.9,55,0.00,,,0.00,,2013-04-24 13:48:00,
2013-04-24 09:53:00,77.6,81.5,30.11,East,90,5.4,10.5,55,0.00,,,0.00,,2013-04-24 13:53:00,
2013-04-24 09:58:00,77.8,82.3,30.11,East,90,11.9,14.3,57,0.00,,,0.00,,2013-04-24 13:58:00,
2013-04-24 10:03:00,78.2,82.2,30.11,East,90,8.5,12.3,56,0.00,,,0.00,,2013-04-24 14:03:00,
2013-04-24 10:08:00,78.1,82.4,30.11,East,90,5.4,11.0,56,0.00,,,0.00,,2013-04-24 14:08:00,
2013-04-24 10:13:00,77.8,81.9,30.12,ESE,112,14.3,17.0,55,0.00,,,0.00,,2013-04-24 14:13:00,
2013-04-24 10:18:00,77.7,81.6,30.11,East,90,15.2,15.2,58,0.00,,,0.00,,2013-04-24 14:18:00,
2013-04-24 10:23:00,77.8,81.6,30.12,East,90,11.0,12.1,57,0.00,,,0.00,,2013-04-24 14:23:00,
2013-04-24 10:28:00,77.3,81.9,30.12,ESE,112,14.3,21.5,55,0.00,,,0.00,,2013-04-24 14:28:00,
2013-04-24 10:33:00,77.6,81.7,30.12,East,90,6.5,9.6,56,0.00,,,0.00,,2013-04-24 14:33:00,
2013-04-24 10:38:00,77.3,82.2,30.12,ESE,112,15.9,19.7,55,0.00,,,0.00,,2013-04-24 14:38:00,
2013-04-24 10:43:00,77.3,82.7,30.12,East,90,15.9,15.9,55,0.00,,,0.00,,2013-04-24 14:43:00,
2013-04-24 10:48:00,77.5,82.3,30.12,East,90,11.2,11.2,57,0.00,,,0.00,,2013-04-24 14:48:00,
2013-04-24 10:53:00,77.5,81.8,30.12,SSE,157,12.8,13.6,56,0.00,,,0.00,,2013-04-24 14:53:00,
2013-04-24 10:58:00,77.3,81.8,30.12,East,90,6.5,19.2,56,0.00,,,0.00,,2013-04-24 14:58:00,
2013-04-24 11:03:00,77.8,82.6,30.12,ESE,112,11.0,11.0,55,0.00,,,0.00,,2013-04-24 15:03:00,
2013-04-24 11:09:00,78.2,82.2,30.12,East,90,10.5,14.5,55,0.00,,,0.00,,2013-04-24 15:09:00,
2013-04-24 11:14:00,78.6,82.4,30.12,East,90,6.9,10.5,53,0.00,,,0.00,,2013-04-24 15:14:00,
2013-04-24 11:19:00,78.4,82.2,30.12,ESE,112,12.8,17.4,51,0.00,,,0.00,,2013-04-24 15:19:00,
2013-04-24 11:24:00,78.6,83.0,30.12,East,90,7.4,14.3,53,0.00,,,0.00,,2013-04-24 15:24:00,
2013-04-24 11:29:00,78.3,83.1,30.12,ESE,112,7.4,14.5,52,0.00,,,0.00,,2013-04-24 15:29:00,
2013-04-24 11:34:00,78.6,82.7,30.12,SSE,157,11.9,13.9,52,0.00,,,0.00,,2013-04-24 15:34:00,
2013-04-24 11:39:00,78.0,82.5,30.12,ESE,112,13.0,16.1,51,0.00,,,0.00,,2013-04-24 15:39:00,
2013-04-24 11:44:00,78.1,83.3,30.11,ESE,112,11.4,18.1,51,0.00,,,0.00,,2013-04-24 15:44:00,
2013-04-24 11:49:00,78.1,83.1,30.11,ESE,112,11.6,18.3,50,0.00,,,0.00,,2013-04-24 15:49:00,
2013-04-24 11:54:00,78.3,82.6,30.11,SE,135,10.5,11.2,53,0.00,,,0.00,,2013-04-24 15:54:00,
2013-04-24 11:59:00,78.4,83.1,30.11,East,90,9.8,13.4,54,0.00,,,0.00,,2013-04-24 15:59:00,
2013-04-24 12:04:00,78.3,83.1,30.11,SSE,157,13.0,13.0,51,0.00,,,0.00,,2013-04-24 16:04:00,
2013-04-24 12:09:00,78.6,83.5,30.11,ENE,67,7.6,12.8,51,0.00,,,0.00,,2013-04-24 16:09:00,
2013-04-24 12:14:00,78.6,83.2,30.11,East,90,9.2,11.2,51,0.00,,,0.00,,2013-04-24 16:14:00,
2013-04-24 12:19:00,78.8,83.5,30.11,SE,135,14.1,14.1,51,0.00,,,0.00,,2013-04-24 16:19:00,
2013-04-24 12:24:00,78.6,83.2,30.11,ENE,67,11.4,14.5,50,0.00,,,0.00,,2013-04-24 16:24:00,
2013-04-24 12:29:00,78.5,83.6,30.11,ESE,112,11.9,14.3,49,0.00,,,0.00,,2013-04-24 16:29:00,
2013-04-24 12:34:00,78.8,84.3,30.11,ENE,67,8.1,8.1,51,0.00,,,0.00,,2013-04-24 16:34:00,
2013-04-24 12:39:00,79.1,83.9,30.10,ENE,67,5.4,10.1,52,0.00,,,0.00,,2013-04-24 16:39:00,
2013-04-24 12:44:00,79.0,83.7,30.10,East,90,5.6,7.4,53,0.00,,,0.00,,2013-04-24 16:44:00,
2013-04-24 12:49:00,79.1,83.6,30.10,SE,135,17.0,17.0,53,0.00,,,0.00,,2013-04-24 16:49:00,
2013-04-24 12:54:00,79.1,83.8,30.10,East,90,7.6,9.2,53,0.00,,,0.00,,2013-04-24 16:54:00,
2013-04-24 12:59:00,78.9,83.6,30.10,ESE,112,10.7,15.9,52,0.00,,,0.00,,2013-04-24 16:59:00,
2013-04-24 13:04:00,79.2,85.1,30.10,SE,135,15.4,15.4,52,0.00,,,0.00,,2013-04-24 17:04:00,
2013-04-24 13:09:00,78.8,84.1,30.10,ESE,112,11.4,15.4,52,0.00,,,0.00,,2013-04-24 17:09:00,
2013-04-24 13:14:00,79.0,84.1,30.10,SSE,157,7.8,10.3,53,0.00,,,0.00,,2013-04-24 17:14:00,
2013-04-24 13:19:00,79.1,83.5,30.10,ESE,112,11.2,16.8,52,0.00,,,0.00,,2013-04-24 17:19:00,
2013-04-24 13:24:00,79.0,84.9,30.09,East,90,13.0,17.2,52,0.00,,,0.00,,2013-04-24 17:24:00,
2013-04-24 13:29:00,79.1,83.9,30.09,ENE,67,11.6,11.6,53,0.00,,,0.00,,2013-04-24 17:29:00,
2013-04-24 13:34:00,79.2,85.1,30.09,NE,45,4.5,16.1,51,0.00,,,0.00,,2013-04-24 17:34:00,
2013-04-24 13:40:00,79.1,84.1,30.09,ESE,112,10.5,14.8,52,0.00,,,0.00,,2013-04-24 17:40:00,
2013-04-24 13:45:00,79.2,84.6,30.09,ENE,67,5.8,11.9,52,0.00,,,0.00,,2013-04-24 17:45:00,
2013-04-24 13:50:00,79.1,84.7,30.09,East,90,10.5,13.0,52,0.00,,,0.00,,2013-04-24 17:50:00,
2013-04-24 13:55:00,78.8,85.1,30.09,ESE,112,4.0,12.8,52,0.00,,,0.00,,2013-04-24 17:55:00,
2013-04-24 14:00:00,79.0,85.1,30.09,SE,135,13.0,16.1,52,0.00,,,0.00,,2013-04-24 18:00:00,
2013-04-24 14:05:00,78.7,85.1,30.09,ENE,67,8.3,13.6,53,0.00,,,0.00,,2013-04-24 18:05:00,
2013-04-24 14:10:00,78.7,85.2,30.09,ESE,112,8.3,11.9,54,0.00,,,0.00,,2013-04-24 18:10:00,
2013-04-24 14:15:00,78.7,84.5,30.08,ESE,112,19.0,21.9,51,0.00,,,0.00,,2013-04-24 18:15:00,
2013-04-24 14:20:00,79.2,84.1,30.08,East,90,12.8,13.0,52,0.00,,,0.00,,2013-04-24 18:20:00,
2013-04-24 14:25:00,79.2,83.3,30.08,ENE,67,8.7,15.7,51,0.00,,,0.00,,2013-04-24 18:25:00,
2013-04-24 14:30:00,79.2,83.7,30.08,ESE,112,9.8,13.4,51,0.00,,,0.00,,2013-04-24 18:30:00,
2013-04-24 14:35:00,78.9,85.2,30.08,East,90,8.5,13.9,52,0.00,,,0.00,,2013-04-24 18:35:00,
2013-04-24 14:40:00,79.0,84.6,30.08,SE,135,5.6,6.3,53,0.00,,,0.00,,2013-04-24 18:40:00,
2013-04-24 14:45:00,79.3,84.5,30.08,East,90,11.2,11.9,52,0.00,,,0.00,,2013-04-24 18:45:00,
2013-04-24 14:50:00,79.5,85.0,30.08,ESE,112,8.5,11.4,52,0.00,,,0.00,,2013-04-24 18:50:00,
2013-04-24 14:55:00,79.4,84.9,30.09,ESE,112,8.3,14.8,50,0.00,,,0.00,,2013-04-24 18:55:00,
2013-04-24 15:00:00,79.4,85.7,30.08,ESE,112,6.7,7.8,51,0.00,,,0.00,,2013-04-24 19:00:00,
2013-04-24 15:05:00,79.6,85.0,30.08,East,90,6.5,10.5,52,0.00,,,0.00,,2013-04-24 19:05:00,
2013-04-24 15:10:00,79.8,84.9,30.08,ENE,67,10.1,11.9,51,0.00,,,0.00,,2013-04-24 19:10:00,
2013-04-24 15:15:00,79.7,85.8,30.08,ESE,112,6.0,15.7,49,0.00,,,0.00,,2013-04-24 19:15:00,
2013-04-24 15:20:00,80.0,85.4,30.08,East,90,12.5,14.5,50,0.00,,,0.00,,2013-04-24 19:20:00,
2013-04-24 15:25:00,79.9,83.9,30.07,ENE,67,5.1,9.4,49,0.00,,,0.00,,2013-04-24 19:25:00,
2013-04-24 15:30:00,79.7,86.4,30.07,NNE,22,10.3,11.2,48,0.00,,,0.00,,2013-04-24 19:30:00,
2013-04-24 15:35:00,79.6,86.4,30.07,SSE,157,3.1,6.5,50,0.00,,,0.00,,2013-04-24 19:35:00,
2013-04-24 15:40:00,79.3,86.2,30.07,East,90,13.4,13.4,51,0.00,,,0.00,,2013-04-24 19:40:00,
2013-04-24 15:45:00,79.7,85.3,30.07,ENE,67,10.1,12.5,50,0.00,,,0.00,,2013-04-24 19:45:00,
2013-04-24 15:50:00,79.9,86.3,30.07,SE,135,7.4,8.7,50,0.00,,,0.00,,2013-04-24 19:50:00,
2013-04-24 15:55:00,80.0,86.4,30.07,ENE,67,7.2,11.0,50,0.00,,,0.00,,2013-04-24 19:55:00,
2013-04-24 16:00:00,80.0,85.7,30.07,ESE,112,4.5,8.1,51,0.00,,,0.00,,2013-04-24 20:00:00,
2013-04-24 16:05:00,80.0,85.4,30.07,East,90,9.6,10.5,50,0.00,,,0.00,,2013-04-24 20:05:00,
2013-04-24 16:10:00,79.9,86.0,30.07,SE,135,6.7,11.4,49,0.00,,,0.00,,2013-04-24 20:10:00,
2013-04-24 16:15:00,79.9,85.9,30.07,East,90,8.7,12.1,51,0.00,,,0.00,,2013-04-24 20:15:00,
2013-04-24 16:20:00,79.7,85.9,30.07,ENE,67,9.8,13.4,51,0.00,,,0.00,,2013-04-24 20:20:00,
2013-04-24 16:25:00,79.5,85.6,30.07,ESE,112,6.0,10.1,51,0.00,,,0.00,,2013-04-24 20:25:00,
2013-04-24 16:30:00,79.0,85.6,30.07,ESE,112,8.5,16.1,53,0.00,,,0.00,,2013-04-24 20:30:00,
2013-04-24 16:35:00,79.1,85.8,30.06,SE,135,5.8,8.7,51,0.00,,,0.00,,2013-04-24 20:35:00,
2013-04-24 16:40:00,79.1,86.1,30.07,ENE,67,8.7,12.1,51,0.00,,,0.00,,2013-04-24 20:40:00,
2013-04-24 16:45:00,79.3,85.3,30.07,ESE,112,4.9,9.6,51,0.00,,,0.00,,2013-04-24 20:45:00,
2013-04-24 16:50:00,79.7,85.5,30.07,ESE,112,6.5,8.7,50,0.00,,,0.00,,2013-04-24 20:50:00,
2013-04-24 16:55:00,80.2,84.5,30.07,ENE,67,9.4,11.6,51,0.00,,,0.00,,2013-04-24 20:55:00,
2013-04-24 17:00:00,80.1,85.7,30.07,East,90,4.3,13.9,50,0.00,,,0.00,,2013-04-24 21:00:00,
2013-04-24 17:05:00,80.1,85.9,30.06,NE,45,8.3,16.6,49,0.00,,,0.00,,2013-04-24 21:05:00,
2013-04-24 17:10:00,79.9,85.2,30.07,NNE,22,7.2,10.7,50,0.00,,,0.00,,2013-04-24 21:10:00,
2013-04-24 17:15:00,80.0,85.2,30.07,East,90,5.4,12.5,51,0.00,,,0.00,,2013-04-24 21:15:00,
2013-04-24 17:20:00,79.7,85.3,30.07,ESE,112,9.2,12.1,49,0.00,,,0.00,,2013-04-24 21:20:00,
2013-04-24 17:25:00,79.3,85.6,30.07,East,90,6.7,8.9,49,0.00,,,0.00,,2013-04-24 21:25:00,
2013-04-24 17:30:00,79.7,86.2,30.07,ESE,112,7.4,7.8,49,0.00,,,0.00,,2013-04-24 21:30:00,
2013-04-24 17:35:00,80.0,85.6,30.07,NE,45,8.5,8.7,51,0.00,,,0.00,,2013-04-24 21:35:00,
2013-04-24 17:40:00,80.1,85.3,30.07,ESE,112,10.1,12.1,50,0.00,,,0.00,,2013-04-24 21:40:00,
2013-04-24 17:45:00,80.0,85.5,30.07,ESE,112,11.2,11.9,51,0.00,,,0.00,,2013-04-24 21:45:00,
2013-04-24 17:50:00,79.9,85.5,30.07,ESE,112,7.6,10.1,52,0.00,,,0.00,,2013-04-24 21:50:00,
2013-04-24 17:55:00,79.7,85.2,30.07,ESE,112,8.9,10.3,51,0.00,,,0.00,,2013-04-24 21:55:00,
2013-04-24 18:00:00,79.7,85.0,30.08,ESE,112,6.9,11.0,50,0.00,,,0.00,,2013-04-24 22:00:00,
2013-04-24 18:06:00,79.4,85.4,30.08,SE,135,5.1,5.1,49,0.00,,,0.00,,2013-04-24 22:06:00,
2013-04-24 18:11:00,79.5,85.7,30.07,East,90,11.0,11.6,51,0.00,,,0.00,,2013-04-24 22:11:00,
2013-04-24 18:16:00,79.6,85.0,30.08,ESE,112,7.4,9.6,50,0.00,,,0.00,,2013-04-24 22:16:00,
2013-04-24 18:21:00,79.5,84.8,30.08,East,90,9.2,9.2,50,0.00,,,0.00,,2013-04-24 22:21:00,
2013-04-24 18:26:00,79.3,85.1,30.08,ESE,112,4.5,5.8,51,0.00,,,0.00,,2013-04-24 22:26:00,
2013-04-24 18:31:00,79.6,85.3,30.08,East,90,8.9,9.8,49,0.00,,,0.00,,2013-04-24 22:31:00,
2013-04-24 18:36:00,79.6,85.3,30.08,ENE,67,9.8,9.8,51,0.00,,,0.00,,2013-04-24 22:36:00,
2013-04-24 18:41:00,79.6,85.3,30.08,ENE,67,6.9,10.1,50,0.00,,,0.00,,2013-04-24 22:41:00,
2013-04-24 18:46:00,79.8,85.2,30.08,East,90,7.6,7.6,50,0.00,,,0.00,,2013-04-24 22:46:00,
2013-04-24 18:51:00,80.0,84.9,30.08,East,90,6.9,9.2,52,0.00,,,0.00,,2013-04-24 22:51:00,
2013-04-24 18:56:00,80.1,85.0,30.08,East,90,8.3,8.3,51,0.00,,,0.00,,2013-04-24 22:56:00,
2013-04-24 19:01:00,80.1,85.1,30.08,East,90,5.4,8.7,52,0.00,,,0.00,,2013-04-24 23:01:00,
2013-04-24 19:06:00,80.2,85.1,30.08,East,90,10.1,12.5,51,0.00,,,0.00,,2013-04-24 23:06:00,
2013-04-24 19:11:00,80.0,85.0,30.09,East,90,9.2,10.5,50,0.00,,,0.00,,2013-04-24 23:11:00,
2013-04-24 19:16:00,79.9,84.9,30.09,East,90,4.0,8.3,50,0.00,,,0.00,,2013-04-24 23:16:00,
2013-04-24 19:21:00,79.7,84.7,30.09,East,90,5.8,9.4,51,0.00,,,0.00,,2013-04-24 23:21:00,
2013-04-24 19:26:00,79.3,84.7,30.09,East,90,6.5,10.1,53,0.00,,,0.00,,2013-04-24 23:26:00,
2013-04-24 19:31:00,78.8,84.6,30.10,East,90,6.0,7.4,54,0.00,,,0.00,,2013-04-24 23:31:00,
2013-04-24 19:36:00,78.2,83.9,30.10,ENE,67,5.6,7.8,55,0.00,,,0.00,,2013-04-24 23:36:00,
2013-04-24 19:41:00,77.6,84.3,30.10,East,90,11.9,12.5,56,0.00,,,0.00,,2013-04-24 23:41:00,
2013-04-24 19:46:00,77.2,84.4,30.10,ESE,112,8.1,12.1,56,0.00,,,0.00,,2013-04-24 23:46:00,
2013-04-24 19:51:00,76.7,84.3,30.10,East,90,5.4,9.6,58,0.00,,,0.00,,2013-04-24 23:51:00,
2013-04-24 19:56:00,76.5,84.3,30.10,ENE,67,3.8,7.2,59,0.00,,,0.00,,2013-04-24 23:56:00,
2013-04-24 20:01:00,76.3,84.3,30.10,East,90,2.7,4.7,60,0.00,,,0.00,,2013-04-25 00:01:00,
2013-04-24 20:06:00,76.1,84.2,30.10,ENE,67,6.3,9.4,60,0.00,,,0.00,,2013-04-25 00:06:00,
2013-04-24 20:11:00,76.0,84.1,30.11,East,90,1.3,4.9,60,0.00,,,0.00,,2013-04-25 00:11:00,
2013-04-24 20:16:00,75.9,84.1,30.11,East,90,4.7,8.5,61,0.00,,,0.00,,2013-04-25 00:16:00,
2013-04-24 20:21:00,75.7,84.1,30.11,ESE,112,3.8,7.8,61,0.00,,,0.00,,2013-04-25 00:21:00,
2013-04-24 20:26:00,75.6,84.0,30.11,ENE,67,5.8,8.3,61,0.00,,,0.00,,2013-04-25 00:26:00,
2013-04-24 20:31:00,75.5,84.0,30.11,ENE,67,3.4,3.4,61,0.00,,,0.00,,2013-04-25 00:31:00,
2013-04-24 20:36:00,75.4,84.0,30.11,NE,45,5.1,7.4,61,0.00,,,0.00,,2013-04-25 00:36:00,
2013-04-24 20:41:00,75.3,83.9,30.11,East,90,7.2,7.8,62,0.00,,,0.00,,2013-04-25 00:41:00,
2013-04-24 20:46:00,75.2,83.9,30.11,East,90,5.1,7.2,62,0.00,,,0.00,,2013-04-25 00:46:00,
2013-04-24 20:51:00,75.2,83.9,30.11,SE,135,3.6,6.5,62,0.00,,,0.00,,2013-04-25 00:51:00,
2013-04-24 20:56:00,75.1,83.9,30.11,East,90,4.3,6.9,62,0.00,,,0.00,,2013-04-25 00:56:00,
2013-04-24 21:01:00,75.1,83.8,30.11,East,90,3.8,4.3,62,0.00,,,0.00,,2013-04-25 01:01:00,
2013-04-24 21:06:00,75.0,83.8,30.11,East,90,5.4,6.0,63,0.00,,,0.00,,2013-04-25 01:06:00,
2013-04-24 21:11:00,74.9,83.8,30.11,ENE,67,3.1,3.1,63,0.00,,,0.00,,2013-04-25 01:11:00,
2013-04-24 21:16:00,74.8,83.8,30.11,ENE,67,6.7,9.8,62,0.00,,,0.00,,2013-04-25 01:16:00,
2013-04-24 21:21:00,74.8,83.8,30.12,East,90,4.9,4.9,62,0.00,,,0.00,,2013-04-25 01:21:00,
2013-04-24 21:26:00,74.7,83.7,30.12,ENE,67,3.8,5.4,62,0.00,,,0.00,,2013-04-25 01:26:00,
2013-04-24 21:31:00,74.7,83.6,30.12,ESE,112,4.7,4.7,62,0.00,,,0.00,,2013-04-25 01:31:00,
2013-04-24 21:36:00,74.6,83.7,30.12,East,90,6.3,6.7,62,0.00,,,0.00,,2013-04-25 01:36:00,
2013-04-24 21:41:00,74.5,83.6,30.12,East,90,4.7,4.7,61,0.00,,,0.00,,2013-04-25 01:41:00,
2013-04-24 21:46:00,74.5,83.6,30.12,ESE,112,3.8,5.8,61,0.00,,,0.00,,2013-04-25 01:46:00,
2013-04-24 21:51:00,74.5,83.7,30.12,East,90,4.0,4.0,62,0.00,,,0.00,,2013-04-25 01:51:00,
2013-04-24 21:56:00,74.4,83.6,30.12,East,90,0.9,4.7,62,0.00,,,0.00,,2013-04-25 01:56:00,
2013-04-24 22:01:00,74.3,83.6,30.13,East,90,1.6,3.1,63,0.00,,,0.00,,2013-04-25 02:01:00,
2013-04-24 22:06:00,74.3,83.6,30.13,ESE,112,2.7,3.6,63,0.00,,,0.00,,2013-04-25 02:06:00,
2013-04-24 22:11:00,74.2,83.5,30.13,ESE,112,3.6,5.6,63,0.00,,,0.00,,2013-04-25 02:11:00,
2013-04-24 22:16:00,74.2,83.6,30.13,East,90,3.1,6.9,64,0.00,,,0.00,,2013-04-25 02:16:00,
2013-04-24 22:22:00,74.2,83.5,30.13,ESE,112,3.8,3.8,64,0.00,,,0.00,,2013-04-25 02:22:00,
2013-04-24 22:26:00,74.2,83.6,30.13,ENE,67,3.6,6.9,64,0.00,,,0.00,,2013-04-25 02:26:00,
2013-04-24 22:32:00,74.1,83.5,30.13,East,90,2.7,5.4,64,0.00,,,0.00,,2013-04-25 02:32:00,
2013-04-24 22:37:00,74.1,83.5,30.13,ENE,67,3.4,6.5,64,0.00,,,0.00,,2013-04-25 02:37:00,
2013-04-24 22:42:00,74.1,83.4,30.13,East,90,4.7,10.5,63,0.00,,,0.00,,2013-04-25 02:42:00,
2013-04-24 22:47:00,74.0,83.5,30.13,East,90,1.8,6.9,64,0.00,,,0.00,,2013-04-25 02:47:00,
2013-04-24 22:52:00,74.0,83.4,30.13,ENE,67,3.1,6.5,63,0.00,,,0.00,,2013-04-25 02:52:00,
2013-04-24 22:57:00,74.0,83.3,30.13,ENE,67,3.6,6.7,62,0.00,,,0.00,,2013-04-25 02:57:00,
2013-04-24 23:02:00,74.0,83.3,30.13,East,90,3.1,6.7,62,0.00,,,0.00,,2013-04-25 03:02:00,
2013-04-24 23:07:00,74.0,83.3,30.13,East,90,2.9,6.5,62,0.00,,,0.00,,2013-04-25 03:07:00,
2013-04-24 23:12:00,74.0,83.2,30.13,ESE,112,5.6,10.1,62,0.00,,,0.00,,2013-04-25 03:12:00,
2013-04-24 23:17:00,74.0,83.3,30.13,East,90,3.4,6.0,62,0.00,,,0.00,,2013-04-25 03:17:00,
2013-04-24 23:22:00,74.0,83.2,30.13,East,90,1.6,6.9,63,0.00,,,0.00,,2013-04-25 03:22:00,
2013-04-24 23:27:00,73.9,83.4,30.13,East,90,2.5,5.4,63,0.00,,,0.00,,2013-04-25 03:27:00,
2013-04-24 23:32:00,73.9,83.3,30.13,East,90,2.7,4.0,63,0.00,,,0.00,,2013-04-25 03:32:00,
2013-04-24 23:37:00,73.9,83.3,30.12,ESE,112,6.7,8.3,64,0.00,,,0.00,,2013-04-25 03:37:00,
2013-04-24 23:42:00,73.8,83.3,30.12,ESE,112,5.6,6.3,64,0.00,,,0.00,,2013-04-25 03:42:00,
2013-04-24 23:47:00,73.7,83.3,30.13,East,90,4.0,5.1,64,0.00,,,0.00,,2013-04-25 03:47:00,
2013-04-24 23:52:00,73.6,83.2,30.12,East,90,5.4,5.8,65,0.00,,,0.00,,2013-04-25 03:52:00,
2013-04-24 23:57:00,73.6,83.2,30.13,East,90,4.5,7.6,65,0.00,,,0.00,,2013-04-25 03:57:00,